Time;durP1;ratioP1;P1;durP2;ratioP2;P2;SDS_P1;SDS_P2;PMS_P1;PMS_P2;Temp;Humidity;BMP_temperature;BMP_pressure;BME280_temperature;BME280_humidity;BME280_pressure;Samples;Min_cycle;Max_cycle;Signal;HPM_P1;HPM_P2
2022/04/18 00:03:01;;;;;;;1.85;1.08;;;12.30;60.40;;;;;;20626043;28;20136;-72
2022/04/18 00:13:01;;;;;;;4.88;1.20;;;12.20;60.20;;;;;;20626376;28;20045;-74
2022/04/18 00:23:02;;;;;;;2.83;1.30;;;12.20;60.20;;;;;;20621215;28;20128;-72
2022/04/18 00:33:02;;;;;;;2.25;0.90;;;12.20;60.20;;;;;;20625522;28;20101;-72
2022/04/18 00:43:04;;;;;;;2.40;1.33;;;12.20;60.10;;;;;;20655368;28;20038;-73
2022/04/18 00:53:05;;;;;;;2.17;1.58;;;12.20;60.10;;;;;;20639553;28;20072;-73
2022/04/18 01:03:05;;;;;;;3.42;2.25;;;12.20;60.00;;;;;;20654093;28;20058;-73
2022/04/18 01:13:06;;;;;;;2.08;1.15;;;12.10;59.80;;;;;;20637869;28;20093;-73
2022/04/18 01:23:20;;;;;;;5.80;2.10;;;12.20;59.80;;;;;;20624319;28;20061;-72
2022/04/18 01:33:39;;;;;;;2.90;1.85;;;12.10;59.70;;;;;;20654179;28;20050;-73
2022/04/18 01:43:41;;;;;;;2.30;1.42;;;12.10;60.30;;;;;;20619159;28;20034;-71
2022/04/18 01:53:42;;;;;;;4.00;2.20;;;12.10;59.60;;;;;;20634036;28;20046;-73
2022/04/18 02:03:43;;;;;;;4.28;1.98;;;12.10;59.60;;;;;;20633995;28;20030;-72
2022/04/18 02:13:44;;;;;;;5.30;2.40;;;12.10;59.50;;;;;;20617003;28;20105;-73
2022/04/18 02:23:47;;;;;;;5.03;1.90;;;12.10;59.50;;;;;;20631823;28;20045;-73
2022/04/18 02:33:47;;;;;;;3.45;1.70;;;12.00;59.40;;;;;;21108189;23;20057;-80
2022/04/18 02:43:49;;;;;;;3.15;1.77;;;12.00;59.40;;;;;;20777785;28;20040;-79
2022/04/18 02:53:50;;;;;;;3.50;2.05;;;12.00;59.40;;;;;;20776940;28;20053;-79
2022/04/18 03:03:51;;;;;;;3.33;1.77;;;12.00;59.30;;;;;;20809353;28;20033;-78
2022/04/18 03:13:52;;;;;;;5.75;1.92;;;12.00;59.30;;;;;;20791965;28;20061;-78
2022/04/18 03:24:12;;;;;;;4.35;2.35;;;12.00;59.30;;;;;;20793161;28;20104;-79
2022/04/18 03:34:18;;;;;;;5.07;2.10;;;12.00;59.30;;;;;;20792812;28;20034;-79
2022/04/18 03:44:19;;;;;;;3.60;2.15;;;12.00;59.30;;;;;;20773624;28;20048;-79
2022/04/18 03:54:21;;;;;;;5.32;2.05;;;11.90;59.20;;;;;;20796324;28;20033;-78
2022/04/18 04:04:22;;;;;;;4.10;2.10;;;11.90;59.20;;;;;;20807175;28;20091;-79
2022/04/18 04:14:23;;;;;;;4.45;1.92;;;11.90;59.20;;;;;;20805205;28;20506;-78
2022/04/18 04:24:24;;;;;;;3.13;1.80;;;11.90;59.20;;;;;;20820764;28;20034;-78
2022/04/18 04:34:27;;;;;;;3.35;1.67;;;11.90;59.20;;;;;;20804202;28;20034;-78
2022/04/18 04:44:59;;;;;;;3.45;2.17;;;11.80;59.20;;;;;;20807445;28;20038;-80
2022/04/18 04:55:20;;;;;;;3.50;2.20;;;11.80;59.10;;;;;;20821057;28;20373;-80
2022/04/18 05:05:21;;;;;;;7.57;2.40;;;11.80;59.20;;;;;;20801761;28;20037;-79
2022/04/18 05:15:22;;;;;;;4.43;2.42;;;11.80;59.30;;;;;;20817388;28;20067;-79
2022/04/18 05:25:50;;;;;;;4.22;2.08;;;11.80;59.30;;;;;;20803101;28;20041;-78
2022/04/18 05:35:51;;;;;;;3.75;2.10;;;11.80;59.40;;;;;;20798633;28;20508;-79
2022/04/18 05:45:57;;;;;;;4.40;2.47;;;11.80;59.40;;;;;;20798363;28;20049;-80
2022/04/18 05:55:57;;;;;;;5.32;2.28;;;11.80;59.60;;;;;;20796644;28;20037;-79
2022/04/18 06:06:11;;;;;;;3.70;2.03;;;11.80;59.60;;;;;;20797855;28;20033;-78
2022/04/18 06:16:12;;;;;;;3.95;1.90;;;11.80;59.70;;;;;;20778807;28;20116;-78
2022/04/18 06:26:13;;;;;;;3.25;1.90;;;11.80;59.90;;;;;;20779015;28;20072;-79
2022/04/18 06:36:15;;;;;;;4.60;2.05;;;11.90;60.00;;;;;;20778136;28;20392;-77
2022/04/18 06:46:27;;;;;;;5.43;2.17;;;11.80;60.10;;;;;;20780088;28;20099;-79
2022/04/18 07:06:57;;;;;;;4.00;2.25;;;11.90;60.40;;;;;;20799077;28;20124;-75
2022/04/18 07:16:58;;;;;;;4.65;1.60;;;11.90;60.50;;;;;;20791683;28;20458;-76
2022/04/18 07:27:03;;;;;;;2.30;1.52;;;12.00;60.70;;;;;;20789716;28;20033;-75
2022/04/18 07:37:05;;;;;;;1.88;1.42;;;12.00;60.70;;;;;;20791329;28;20120;-74
2022/04/18 07:47:06;;;;;;;2.17;1.20;;;12.00;60.90;;;;;;20822435;28;20120;-74
2022/04/18 07:57:10;;;;;;;2.28;1.40;;;12.00;60.90;;;;;;20790428;28;20338;-73
2022/04/18 08:07:33;;;;;;;1.95;1.10;;;12.10;61.10;;;;;;20794495;28;20044;-74
2022/04/18 08:17:34;;;;;;;5.88;1.48;;;12.10;61.20;;;;;;20771991;28;20029;-74
2022/04/18 08:27:37;;;;;;;4.00;1.75;;;12.20;61.30;;;;;;20782960;28;20056;-73
2022/04/18 08:37:44;;;;;;;6.07;1.58;;;12.20;61.30;;;;;;20787444;28;20037;-74
2022/04/18 08:58:23;;;;;;;4.85;2.10;;;12.40;61.50;;;;;;20817774;28;20037;-77
2022/04/18 09:08:26;;;;;;;2.05;1.20;;;12.40;61.50;;;;;;20783339;28;20156;-77
2022/04/18 09:18:28;;;;;;;2.75;1.40;;;12.40;61.50;;;;;;20767688;28;20052;-76
2022/04/18 09:28:32;;;;;;;4.35;2.13;;;12.40;61.40;;;;;;20799058;28;20079;-78
2022/04/18 09:38:58;;;;;;;2.58;1.40;;;12.40;61.40;;;;;;20765731;28;20033;-76
2022/04/18 09:49:02;;;;;;;2.33;1.27;;;12.40;61.40;;;;;;20814695;28;20070;-76
2022/04/18 09:59:07;;;;;;;2.03;1.13;;;12.40;61.40;;;;;;20770398;28;20302;-76
2022/04/18 10:09:08;;;;;;;4.03;1.05;;;12.40;61.40;;;;;;20811168;28;20025;-77
2022/04/18 10:19:31;;;;;;;1.70;1.20;;;12.50;61.60;;;;;;20778120;28;20038;-78
2022/04/18 10:29:36;;;;;;;3.15;1.75;;;12.50;61.70;;;;;;20774993;28;20064;-74
2022/04/18 10:39:38;;;;;;;2.13;1.02;;;12.50;61.70;;;;;;20811304;28;20037;-74
2022/04/18 10:49:38;;;;;;;1.90;0.90;;;12.50;61.80;;;;;;20777923;28;20116;-79
2022/04/18 10:59:46;;;;;;;2.30;1.20;;;12.50;61.80;;;;;;20827231;28;20069;-77
2022/04/18 11:09:46;;;;;;;2.28;0.80;;;12.50;62.00;;;;;;20795170;28;20025;-82
2022/04/18 11:19:47;;;;;;;1.38;0.85;;;12.50;62.10;;;;;;20792194;28;20083;-79
2022/04/18 11:29:52;;;;;;;1.00;0.90;;;12.50;62.20;;;;;;20808350;28;20037;-76
2022/04/18 11:39:57;;;;;;;2.92;0.98;;;12.50;62.20;;;;;;20790309;28;20091;-77
2022/04/18 11:49:58;;;;;;;2.63;1.38;;;12.50;62.20;;;;;;20807731;28;20064;-74
2022/04/18 11:59:59;;;;;;;4.07;1.33;;;12.50;62.20;;;;;;20805070;28;20041;-72
2022/04/18 12:10:19;;;;;;;5.50;1.90;;;12.50;62.00;;;;;;20802257;28;20030;-74
2022/04/18 12:20:24;;;;;;;4.70;1.80;;;12.50;60.60;;;;;;20802216;28;20041;-73
2022/04/18 12:30:25;;;;;;;7.60;2.17;;;12.50;59.60;;;;;;20786726;28;20042;-72
2022/04/18 12:40:25;;;;;;;3.00;1.63;;;12.50;59.40;;;;;;20786393;28;20041;-73
2022/04/18 12:50:26;;;;;;;4.80;1.48;;;12.50;59.50;;;;;;20801431;28;20064;-74
2022/04/18 13:00:36;;;;;;;2.10;1.00;;;12.50;60.30;;;;;;20817326;28;20048;-74
2022/04/18 13:10:37;;;;;;;1.02;0.70;;;12.50;59.80;;;;;;20816673;28;20041;-74
2022/04/18 13:20:39;;;;;;;1.92;0.95;;;12.50;60.00;;;;;;20799463;28;20045;-74
2022/04/18 13:30:39;;;;;;;1.33;0.85;;;12.50;60.10;;;;;;20781626;28;20026;-74
2022/04/18 13:40:40;;;;;;;1.17;0.73;;;12.50;60.20;;;;;;20799278;28;20045;-73
2022/04/18 13:50:40;;;;;;;1.20;0.80;;;12.60;60.40;;;;;;20796986;28;20375;-74
2022/04/18 14:00:43;;;;;;;1.92;0.60;;;12.60;60.40;;;;;;20813923;28;20045;-74
2022/04/18 14:10:44;;;;;;;0.80;0.65;;;12.70;60.50;;;;;;20796583;28;20030;-75
2022/04/18 14:20:44;;;;;;;0.80;0.60;;;12.80;60.50;;;;;;20778870;28;20495;-75
2022/04/18 14:30:45;;;;;;;0.57;0.50;;;12.80;60.50;;;;;;20794517;28;20328;-74
2022/04/18 14:40:45;;;;;;;0.50;0.50;;;13.00;60.40;;;;;;20809399;28;20037;-74
2022/04/18 14:50:47;;;;;;;1.13;0.43;;;13.00;60.30;;;;;;20841242;28;20056;-75
2022/04/18 15:00:47;;;;;;;2.05;0.73;;;13.20;60.30;;;;;;20809508;28;20034;-76
2022/04/18 15:10:48;;;;;;;1.02;0.60;;;13.30;60.90;;;;;;20822861;28;20044;-77
2022/04/18 15:20:48;;;;;;;1.02;0.50;;;13.40;60.30;;;;;;20808693;28;20045;-78
2022/04/18 15:41:08;;;;;;;2.50;0.93;;;13.70;60.40;;;;;;20802624;28;20041;-77
2022/04/18 15:51:09;;;;;;;3.33;1.63;;;13.80;59.60;;;;;;20786781;28;20059;-78
2022/04/18 16:01:10;;;;;;;3.15;1.58;;;13.90;57.50;;;;;;20757597;28;20051;-76
2022/04/18 16:11:11;;;;;;;9.10;1.08;;;13.90;56.70;;;;;;20772513;28;20026;-76
2022/04/18 16:21:11;;;;;;;3.78;0.85;;;14.00;56.80;;;;;;20755231;28;20044;-76
2022/04/18 16:51:50;;;;;;;3.38;0.65;;;14.00;57.90;;;;;;20781654;28;20120;-77
2022/04/18 17:01:51;;;;;;;2.42;1.40;;;14.00;58.20;;;;;;20806411;28;20556;-76
2022/04/18 17:11:52;;;;;;;3.63;0.55;;;13.90;58.40;;;;;;20796709;28;20041;-77
2022/04/18 17:21:57;;;;;;;3.20;0.75;;;13.80;58.60;;;;;;20797439;28;20136;-78
2022/04/18 17:31:58;;;;;;;1.77;0.87;;;13.80;58.90;;;;;;20799579;28;20041;-74
2022/04/18 17:41:58;;;;;;;1.50;0.70;;;13.80;59.10;;;;;;20796758;28;20049;-74
2022/04/18 17:51:59;;;;;;;1.20;0.52;;;13.70;59.30;;;;;;20779999;28;20038;-74
2022/04/18 18:02:00;;;;;;;1.20;0.73;;;13.60;59.50;;;;;;20811513;28;20172;-75
2022/04/18 18:12:00;;;;;;;0.85;0.40;;;13.60;59.80;;;;;;20778127;28;20033;-73
2022/04/18 18:22:01;;;;;;;1.77;0.47;;;13.50;60.00;;;;;;20793402;28;20117;-74
2022/04/18 18:32:01;;;;;;;0.57;0.50;;;13.50;60.20;;;;;;20792191;28;20427;-74
2022/04/18 18:42:02;;;;;;;0.73;0.40;;;13.50;60.30;;;;;;20792374;28;20124;-73
2022/04/18 19:02:22;;;;;;;1.27;0.55;;;13.40;60.60;;;;;;20810648;28;20482;-74
2022/04/18 19:12:23;;;;;;;0.80;0.50;;;13.30;60.60;;;;;;20774977;28;20076;-74
2022/04/18 19:32:44;;;;;;;0.93;0.50;;;13.30;60.80;;;;;;20809503;28;20127;-74
2022/04/18 19:42:46;;;;;;;1.40;0.45;;;13.20;60.80;;;;;;20806006;28;20063;-74
2022/04/18 19:52:47;;;;;;;1.98;0.70;;;13.20;60.90;;;;;;20773290;28;20038;-74
2022/04/18 20:02:48;;;;;;;0.40;0.40;;;13.20;61.00;;;;;;20788829;28;20045;-74
2022/04/18 20:12:48;;;;;;;1.13;0.60;;;13.20;61.00;;;;;;20788675;28;20423;-74
2022/04/18 20:22:49;;;;;;;1.02;0.52;;;13.20;61.00;;;;;;20804964;28;20049;-74
2022/04/18 20:32:50;;;;;;;1.65;0.90;;;13.10;61.00;;;;;;20788932;28;20037;-74
2022/04/18 20:42:50;;;;;;;1.10;0.50;;;13.20;61.00;;;;;;20819439;28;20611;-73
2022/04/18 21:03:10;;;;;;;1.92;0.60;;;13.10;60.90;;;;;;20818998;28;20037;-74
2022/04/18 21:13:11;;;;;;;0.95;0.57;;;13.10;60.90;;;;;;20800658;28;20524;-74
2022/04/18 21:23:12;;;;;;;1.27;0.70;;;13.00;60.90;;;;;;20799792;28;20128;-74
2022/04/18 21:33:12;;;;;;;0.70;0.60;;;13.00;60.90;;;;;;20799519;28;20048;-73
2022/04/18 21:43:15;;;;;;;0.98;0.70;;;13.00;60.90;;;;;;20814251;28;20120;-74
2022/04/18 21:53:16;;;;;;;1.23;0.63;;;13.00;60.80;;;;;;20780929;28;20040;-74
2022/04/18 22:03:16;;;;;;;0.90;0.80;;;13.00;60.80;;;;;;20797748;28;20120;-74
2022/04/18 22:13:17;;;;;;;0.83;0.60;;;13.00;60.70;;;;;;20795629;28;20076;-74
2022/04/18 22:33:36;;;;;;;2.72;1.00;;;13.00;60.60;;;;;;20799837;28;20036;-74
2022/04/18 22:43:37;;;;;;;2.05;1.10;;;12.90;60.60;;;;;;20793512;28;20049;-74
2022/04/18 22:53:38;;;;;;;1.58;0.80;;;12.90;61.20;;;;;;20795004;28;20302;-74
2022/04/18 23:03:38;;;;;;;1.48;0.90;;;12.90;60.40;;;;;;20791677;28;20045;-74
2022/04/18 23:13:39;;;;;;;1.27;0.85;;;12.90;60.40;;;;;;20791318;28;20064;-74
2022/04/18 23:23:40;;;;;;;1.13;0.80;;;12.90;60.40;;;;;;20791271;28;20120;-74
2022/04/18 23:33:40;;;;;;;1.20;0.80;;;12.90;60.30;;;;;;20790560;28;20300;-74
2022/04/18 23:43:41;;;;;;;3.35;0.82;;;12.90;60.30;;;;;;20805989;28;20041;-74
2022/04/18 23:53:42;;;;;;;1.30;0.80;;;12.90;60.40;;;;;;20788995;28;20053;-74
